Mesquite, TX (75150)

12:58 PM CDT on September 05, 2015 (GMT -0500)
Palos Verdes Estates | | Change Station
CLOSE
Current Station
Personal Weather Station
Location: Mesquite, TX
Elevation: 540 ft
Nearby Weather Stations

Elev 540 ft 32.83 °N, 96.61 °W | Updated 10 seconds ago

Mostly Cloudy
Mostly Cloudy
93.2 °F
Feels Like 101 °F
N
2.9
Wind Variable Wind from SW
Gusts 7.0 mph

Today
High -- | Low -- °F
--% Chance of Precip.
Yesterday
High -- | Low -- °F
Precip. -- in
7:03 AM 7:46 PM
Waning Gibbous, 46% visible
Pressure 30.01 in
Visibility 10.0 miles
Clouds Scattered Clouds 4400 ft
Mostly Cloudy 6000 ft
Heat Index 101 °F
Dew Point 72 °F
Humidity 50%
Rainfall 0.00 in
Snow Depth Not available.
UV 5 out of 12
Pollen 10.30 out of 12
Air Quality Not available.
Flu Activity Not available.
METAR KHQZ 051750Z 16007KT 10SM SCT044 BKN060 34/21 A3001
Pressure 30.01 in
Visibility 10.0 miles
Clouds Scattered Clouds 4400 ft
Mostly Cloudy 6000 ft
Heat Index 101 °F
Dew Point 72 °F
Humidity 50%
Rainfall 0.00 in
Snow Depth Not available.
UV 5 out of 12
Pollen 10.30 out of 12
Air Quality Not available.
Flu Activity Not available.
METAR KHQZ 051750Z 16007KT 10SM SCT044 BKN060 34/21 A3001
Nowcast | as of 11:57 am CDT on September 5, 2015

Isolated showers will continue over the next few hours mainly for areas along and southeast of a Killeen to Waco to Canton line. A few rumbles of thunder will also be possible. The main hazards with thunderstorms...should they develop...will be gusty winds and occasional cloud to ground lightning. Rain amounts should remain light with totals generally under one quarter of an inch. Otherwise...hot conditions will continue over the next several hours with temperatures in the low to mid 90s.

×

10-Day Weather Forecast

×

Almanac

Astronomy

Sep. 05, 2015 Rise Set
Actual Time
Civil Twilight
Nautical Twilight
Astronomical Twilight
Moon
Length of Visible Light
Length of Day
Tomorrow will be .
, % of the Moon is Illuminated

Today's Extremes

State Highs State Lows

Community

WunderPhotos

Upload Photos

1,852,508 photos uploaded!

WunderBlogs® & News

Nearby

Air Quality

  Air Quality AQ Index Pollutant
Not available.

Snow Depth

Station Depth Elevation

Earthquake Activity

City Distance Mag. Time & Date
Minimum magnitude displayed is 2.5.

Coastal Water Temperatures

Place Temperature

Stations

Nearby Weather Stations

Station Location Temp. Windchill Dew Point Humidity Wind Precip. Elev Updated Type